sensor_id;sensor_type;location;lat;lon;timestamp;P1;durP1;ratioP1;P2;durP2;ratioP2
51877;SDS011;37911;51.526;11.536;2024-01-16T00:00:28;1.80;;;1.70;;
51877;SDS011;37911;51.526;11.536;2024-01-16T00:03:32;1.63;;;1.52;;
51877;SDS011;37911;51.526;11.536;2024-01-16T00:06:38;3.28;;;1.77;;
51877;SDS011;37911;51.526;11.536;2024-01-16T00:09:44;3.30;;;2.13;;
51877;SDS011;37911;51.526;11.536;2024-01-16T00:12:51;2.42;;;1.38;;
51877;SDS011;37911;51.526;11.536;2024-01-16T00:15:55;3.58;;;2.20;;
51877;SDS011;37911;51.526;11.536;2024-01-16T00:18:59;3.50;;;3.30;;
51877;SDS011;37911;51.526;11.536;2024-01-16T00:22:03;2.42;;;1.83;;
51877;SDS011;37911;51.526;11.536;2024-01-16T00:25:09;1.65;;;1.20;;
51877;SDS011;37911;51.526;11.536;2024-01-16T00:28:12;2.08;;;1.73;;
51877;SDS011;37911;51.526;11.536;2024-01-16T00:31:16;3.67;;;1.65;;
51877;SDS011;37911;51.526;11.536;2024-01-16T00:34:19;3.90;;;2.20;;
51877;SDS011;37911;51.526;11.536;2024-01-16T00:37:22;2.75;;;2.13;;
51877;SDS011;37911;51.526;11.536;2024-01-16T00:40:29;4.07;;;2.28;;
51877;SDS011;37911;51.526;11.536;2024-01-16T00:43:32;2.00;;;1.83;;
51877;SDS011;37911;51.526;11.536;2024-01-16T00:46:35;1.85;;;1.17;;
51877;SDS011;37911;51.526;11.536;2024-01-16T00:49:39;2.25;;;2.05;;
51877;SDS011;37911;51.526;11.536;2024-01-16T00:52:42;1.85;;;1.73;;
51877;SDS011;37911;51.526;11.536;2024-01-16T00:55:48;3.17;;;2.97;;
51877;SDS011;37911;51.526;11.536;2024-01-16T00:58:52;1.77;;;1.67;;
51877;SDS011;37911;51.526;11.536;2024-01-16T01:01:56;1.25;;;1.02;;
51877;SDS011;37911;51.526;11.536;2024-01-16T01:05:00;2.10;;;1.77;;
51877;SDS011;37911;51.526;11.536;2024-01-16T01:08:03;1.98;;;1.60;;
51877;SDS011;37911;51.526;11.536;2024-01-16T01:11:10;3.85;;;1.88;;
51877;SDS011;37911;51.526;11.536;2024-01-16T01:14:14;1.60;;;0.73;;
51877;SDS011;37911;51.526;11.536;2024-01-16T01:17:17;3.05;;;2.85;;
51877;SDS011;37911;51.526;11.536;2024-01-16T01:20:20;1.95;;;1.38;;
51877;SDS011;37911;51.526;11.536;2024-01-16T01:23:24;1.27;;;0.75;;
51877;SDS011;37911;51.526;11.536;2024-01-16T01:26:30;1.52;;;1.40;;
51877;SDS011;37911;51.526;11.536;2024-01-16T01:29:33;2.53;;;1.73;;
51877;SDS011;37911;51.526;11.536;2024-01-16T01:32:36;1.25;;;1.15;;
51877;SDS011;37911;51.526;11.536;2024-01-16T01:35:40;1.10;;;0.77;;
51877;SDS011;37911;51.526;11.536;2024-01-16T01:38:43;1.33;;;1.23;;
51877;SDS011;37911;51.526;11.536;2024-01-16T01:41:49;1.65;;;1.45;;
51877;SDS011;37911;51.526;11.536;2024-01-16T01:44:52;1.17;;;1.00;;
51877;SDS011;37911;51.526;11.536;2024-01-16T01:47:56;1.30;;;1.10;;
51877;SDS011;37911;51.526;11.536;2024-01-16T01:50:59;1.65;;;1.55;;
51877;SDS011;37911;51.526;11.536;2024-01-16T01:54:04;2.67;;;1.80;;
51877;SDS011;37911;51.526;11.536;2024-01-16T01:57:10;2.53;;;0.70;;
51877;SDS011;37911;51.526;11.536;2024-01-16T02:00:14;4.22;;;1.48;;
51877;SDS011;37911;51.526;11.536;2024-01-16T02:03:19;1.33;;;0.98;;
51877;SDS011;37911;51.526;11.536;2024-01-16T02:06:24;1.40;;;1.20;;
51877;SDS011;37911;51.526;11.536;2024-01-16T02:09:27;1.00;;;0.98;;
51877;SDS011;37911;51.526;11.536;2024-01-16T02:12:33;1.65;;;0.60;;
51877;SDS011;37911;51.526;11.536;2024-01-16T02:15:36;2.53;;;1.95;;
51877;SDS011;37911;51.526;11.536;2024-01-16T02:18:41;1.10;;;1.00;;
51877;SDS011;37911;51.526;11.536;2024-01-16T02:21:46;0.88;;;0.85;;
51877;SDS011;37911;51.526;11.536;2024-01-16T02:24:53;0.63;;;0.63;;
51877;SDS011;37911;51.526;11.536;2024-01-16T02:27:57;2.83;;;0.93;;
51877;SDS011;37911;51.526;11.536;2024-01-16T02:31:03;2.03;;;1.10;;
51877;SDS011;37911;51.526;11.536;2024-01-16T02:34:06;2.47;;;1.17;;
51877;SDS011;37911;51.526;11.536;2024-01-16T02:37:10;3.85;;;1.65;;
51877;SDS011;37911;51.526;11.536;2024-01-16T02:40:16;0.82;;;0.70;;
51877;SDS011;37911;51.526;11.536;2024-01-16T02:43:19;2.55;;;0.80;;
51877;SDS011;37911;51.526;11.536;2024-01-16T02:46:23;0.95;;;0.70;;
51877;SDS011;37911;51.526;11.536;2024-01-16T02:49:26;2.35;;;1.20;;
51877;SDS011;37911;51.526;11.536;2024-01-16T02:52:32;3.92;;;1.38;;
51877;SDS011;37911;51.526;11.536;2024-01-16T02:55:38;2.78;;;0.98;;
51877;SDS011;37911;51.526;11.536;2024-01-16T02:58:41;0.90;;;0.90;;
51877;SDS011;37911;51.526;11.536;2024-01-16T03:01:44;1.58;;;0.90;;
51877;SDS011;37911;51.526;11.536;2024-01-16T03:04:48;1.75;;;1.38;;
51877;SDS011;37911;51.526;11.536;2024-01-16T03:07:51;1.55;;;0.35;;
51877;SDS011;37911;51.526;11.536;2024-01-16T03:10:57;0.88;;;0.52;;
51877;SDS011;37911;51.526;11.536;2024-01-16T03:14:00;1.45;;;1.35;;
51877;SDS011;37911;51.526;11.536;2024-01-16T03:17:03;0.60;;;0.60;;
51877;SDS011;37911;51.526;11.536;2024-01-16T03:20:07;4.18;;;1.95;;
51877;SDS011;37911;51.526;11.536;2024-01-16T03:23:11;1.42;;;1.15;;
51877;SDS011;37911;51.526;11.536;2024-01-16T03:26:17;1.67;;;1.58;;
51877;SDS011;37911;51.526;11.536;2024-01-16T03:29:21;1.20;;;0.85;;
51877;SDS011;37911;51.526;11.536;2024-01-16T03:32:24;2.95;;;1.20;;
51877;SDS011;37911;51.526;11.536;2024-01-16T03:35:27;1.13;;;1.00;;
51877;SDS011;37911;51.526;11.536;2024-01-16T03:38:30;0.80;;;0.75;;
51877;SDS011;37911;51.526;11.536;2024-01-16T03:41:36;2.80;;;1.05;;
51877;SDS011;37911;51.526;11.536;2024-01-16T03:44:40;3.83;;;3.28;;
51877;SDS011;37911;51.526;11.536;2024-01-16T03:47:43;2.08;;;0.85;;
51877;SDS011;37911;51.526;11.536;2024-01-16T03:50:46;3.38;;;1.55;;
51877;SDS011;37911;51.526;11.536;2024-01-16T03:53:50;1.30;;;1.17;;
51877;SDS011;37911;51.526;11.536;2024-01-16T03:56:56;2.05;;;1.38;;
51877;SDS011;37911;51.526;11.536;2024-01-16T03:59:59;2.05;;;1.95;;
51877;SDS011;37911;51.526;11.536;2024-01-16T04:03:05;3.97;;;1.65;;
51877;SDS011;37911;51.526;11.536;2024-01-16T04:06:15;1.10;;;0.80;;
51877;SDS011;37911;51.526;11.536;2024-01-16T04:09:18;1.48;;;1.30;;
51877;SDS011;37911;51.526;11.536;2024-01-16T04:12:24;1.88;;;1.67;;
51877;SDS011;37911;51.526;11.536;2024-01-16T04:15:28;3.22;;;1.42;;
51877;SDS011;37911;51.526;11.536;2024-01-16T04:18:32;1.60;;;1.33;;
51877;SDS011;37911;51.526;11.536;2024-01-16T04:21:38;1.67;;;1.58;;
51877;SDS011;37911;51.526;11.536;2024-01-16T04:24:41;9.15;;;3.05;;
51877;SDS011;37911;51.526;11.536;2024-01-16T04:27:47;2.65;;;1.60;;
51877;SDS011;37911;51.526;11.536;2024-01-16T04:30:51;2.90;;;1.45;;
51877;SDS011;37911;51.526;11.536;2024-01-16T04:33:54;2.28;;;1.50;;
51877;SDS011;37911;51.526;11.536;2024-01-16T04:36:58;2.97;;;1.92;;
51877;SDS011;37911;51.526;11.536;2024-01-16T04:40:01;1.48;;;1.38;;
51877;SDS011;37911;51.526;11.536;2024-01-16T04:43:08;3.30;;;2.38;;
51877;SDS011;37911;51.526;11.536;2024-01-16T04:46:11;1.58;;;1.48;;
51877;SDS011;37911;51.526;11.536;2024-01-16T04:49:16;1.88;;;1.52;;
51877;SDS011;37911;51.526;11.536;2024-01-16T04:52:20;3.67;;;1.90;;
51877;SDS011;37911;51.526;11.536;2024-01-16T04:55:23;2.88;;;2.10;;
51877;SDS011;37911;51.526;11.536;2024-01-16T04:58:29;2.47;;;2.08;;
51877;SDS011;37911;51.526;11.536;2024-01-16T05:01:33;2.42;;;2.22;;
51877;SDS011;37911;51.526;11.536;2024-01-16T05:04:36;3.72;;;2.03;;
51877;SDS011;37911;51.526;11.536;2024-01-16T05:07:40;2.17;;;1.38;;
51877;SDS011;37911;51.526;11.536;2024-01-16T05:10:44;4.85;;;2.30;;
51877;SDS011;37911;51.526;11.536;2024-01-16T05:13:50;1.85;;;1.13;;
51877;SDS011;37911;51.526;11.536;2024-01-16T05:16:58;5.00;;;2.03;;
51877;SDS011;37911;51.526;11.536;2024-01-16T05:20:01;1.33;;;1.23;;
51877;SDS011;37911;51.526;11.536;2024-01-16T05:23:06;3.58;;;2.25;;
51877;SDS011;37911;51.526;11.536;2024-01-16T05:26:09;2.25;;;1.73;;
51877;SDS011;37911;51.526;11.536;2024-01-16T05:29:16;2.78;;;1.25;;
51877;SDS011;37911;51.526;11.536;2024-01-16T05:32:20;3.22;;;1.55;;
51877;SDS011;37911;51.526;11.536;2024-01-16T05:35:25;5.82;;;1.23;;
51877;SDS011;37911;51.526;11.536;2024-01-16T05:38:28;1.13;;;0.90;;
51877;SDS011;37911;51.526;11.536;2024-01-16T05:41:32;2.05;;;1.92;;
51877;SDS011;37911;51.526;11.536;2024-01-16T05:44:39;1.23;;;1.02;;
51877;SDS011;37911;51.526;11.536;2024-01-16T05:47:42;2.45;;;1.20;;
51877;SDS011;37911;51.526;11.536;2024-01-16T05:50:46;2.17;;;0.80;;
51877;SDS011;37911;51.526;11.536;2024-01-16T05:53:49;2.05;;;1.17;;
51877;SDS011;37911;51.526;11.536;2024-01-16T05:56:53;2.63;;;1.85;;
51877;SDS011;37911;51.526;11.536;2024-01-16T05:59:58;8.43;;;1.60;;
51877;SDS011;37911;51.526;11.536;2024-01-16T06:03:05;3.00;;;1.73;;
51877;SDS011;37911;51.526;11.536;2024-01-16T06:06:09;1.83;;;1.42;;
51877;SDS011;37911;51.526;11.536;2024-01-16T06:09:12;5.55;;;1.98;;
51877;SDS011;37911;51.526;11.536;2024-01-16T06:12:16;6.20;;;1.98;;
51877;SDS011;37911;51.526;11.536;2024-01-16T06:15:22;4.60;;;3.03;;
51877;SDS011;37911;51.526;11.536;2024-01-16T06:18:26;2.88;;;1.98;;
51877;SDS011;37911;51.526;11.536;2024-01-16T06:21:29;3.53;;;2.17;;
51877;SDS011;37911;51.526;11.536;2024-01-16T06:24:33;4.40;;;2.63;;
51877;SDS011;37911;51.526;11.536;2024-01-16T06:27:37;2.95;;;2.72;;
51877;SDS011;37911;51.526;11.536;2024-01-16T06:30:43;3.38;;;2.75;;
51877;SDS011;37911;51.526;11.536;2024-01-16T06:33:46;5.18;;;2.72;;
51877;SDS011;37911;51.526;11.536;2024-01-16T06:36:50;3.75;;;3.20;;
51877;SDS011;37911;51.526;11.536;2024-01-16T06:39:53;5.00;;;2.83;;
51877;SDS011;37911;51.526;11.536;2024-01-16T06:42:56;5.88;;;4.13;;
51877;SDS011;37911;51.526;11.536;2024-01-16T06:46:03;5.47;;;2.97;;
51877;SDS011;37911;51.526;11.536;2024-01-16T06:49:06;4.00;;;3.40;;
51877;SDS011;37911;51.526;11.536;2024-01-16T06:52:09;6.07;;;3.70;;
51877;SDS011;37911;51.526;11.536;2024-01-16T06:55:13;4.80;;;3.10;;
51877;SDS011;37911;51.526;11.536;2024-01-16T06:58:16;3.70;;;3.00;;
51877;SDS011;37911;51.526;11.536;2024-01-16T07:01:22;6.10;;;2.97;;
51877;SDS011;37911;51.526;11.536;2024-01-16T07:04:26;4.72;;;2.58;;
51877;SDS011;37911;51.526;11.536;2024-01-16T07:07:29;3.53;;;2.70;;
51877;SDS011;37911;51.526;11.536;2024-01-16T07:10:32;3.28;;;2.80;;
51877;SDS011;37911;51.526;11.536;2024-01-16T07:13:36;2.70;;;2.45;;
51877;SDS011;37911;51.526;11.536;2024-01-16T07:16:42;4.38;;;2.38;;
51877;SDS011;37911;51.526;11.536;2024-01-16T07:19:45;5.20;;;2.20;;
51877;SDS011;37911;51.526;11.536;2024-01-16T07:22:48;5.10;;;2.63;;
51877;SDS011;37911;51.526;11.536;2024-01-16T07:25:52;3.53;;;2.95;;
51877;SDS011;37911;51.526;11.536;2024-01-16T07:28:55;4.63;;;4.03;;
51877;SDS011;37911;51.526;11.536;2024-01-16T07:32:01;6.05;;;3.13;;
51877;SDS011;37911;51.526;11.536;2024-01-16T07:35:05;5.75;;;3.60;;
51877;SDS011;37911;51.526;11.536;2024-01-16T07:38:09;11.38;;;4.15;;
51877;SDS011;37911;51.526;11.536;2024-01-16T07:41:12;3.88;;;3.35;;
51877;SDS011;37911;51.526;11.536;2024-01-16T07:44:15;6.13;;;3.33;;
51877;SDS011;37911;51.526;11.536;2024-01-16T07:47:21;6.95;;;3.97;;
51877;SDS011;37911;51.526;11.536;2024-01-16T07:50:24;5.97;;;2.67;;
51877;SDS011;37911;51.526;11.536;2024-01-16T07:53:28;7.68;;;3.58;;
51877;SDS011;37911;51.526;11.536;2024-01-16T07:56:31;7.60;;;4.60;;
51877;SDS011;37911;51.526;11.536;2024-01-16T07:59:34;4.65;;;3.85;;
51877;SDS011;37911;51.526;11.536;2024-01-16T08:02:40;4.85;;;3.03;;
51877;SDS011;37911;51.526;11.536;2024-01-16T08:05:44;5.32;;;3.33;;
51877;SDS011;37911;51.526;11.536;2024-01-16T08:08:47;6.28;;;4.20;;
51877;SDS011;37911;51.526;11.536;2024-01-16T08:11:50;4.55;;;2.75;;
51877;SDS011;37911;51.526;11.536;2024-01-16T08:14:53;7.72;;;3.53;;
51877;SDS011;37911;51.526;11.536;2024-01-16T08:17:59;6.50;;;3.28;;
51877;SDS011;37911;51.526;11.536;2024-01-16T08:21:03;5.22;;;3.47;;
51877;SDS011;37911;51.526;11.536;2024-01-16T08:24:07;5.57;;;3.40;;
51877;SDS011;37911;51.526;11.536;2024-01-16T08:27:11;6.82;;;4.25;;
51877;SDS011;37911;51.526;11.536;2024-01-16T08:30:14;5.40;;;3.42;;
51877;SDS011;37911;51.526;11.536;2024-01-16T08:33:20;6.68;;;3.80;;
51877;SDS011;37911;51.526;11.536;2024-01-16T08:36:24;5.53;;;3.88;;
51877;SDS011;37911;51.526;11.536;2024-01-16T08:39:27;6.50;;;2.97;;
51877;SDS011;37911;51.526;11.536;2024-01-16T08:42:33;5.55;;;3.35;;
51877;SDS011;37911;51.526;11.536;2024-01-16T08:45:36;6.65;;;4.22;;
51877;SDS011;37911;51.526;11.536;2024-01-16T08:48:42;3.53;;;2.65;;
51877;SDS011;37911;51.526;11.536;2024-01-16T08:51:46;5.43;;;4.13;;
51877;SDS011;37911;51.526;11.536;2024-01-16T08:54:49;6.03;;;3.60;;
51877;SDS011;37911;51.526;11.536;2024-01-16T08:57:53;6.28;;;4.32;;
51877;SDS011;37911;51.526;11.536;2024-01-16T09:00:56;7.93;;;3.75;;
51877;SDS011;37911;51.526;11.536;2024-01-16T09:04:02;8.85;;;3.55;;
51877;SDS011;37911;51.526;11.536;2024-01-16T09:07:05;8.90;;;4.00;;
51877;SDS011;37911;51.526;11.536;2024-01-16T09:10:09;5.05;;;3.58;;
51877;SDS011;37911;51.526;11.536;2024-01-16T09:13:13;10.25;;;2.80;;
51877;SDS011;37911;51.526;11.536;2024-01-16T09:16:16;6.18;;;5.60;;
51877;SDS011;37911;51.526;11.536;2024-01-16T09:19:22;4.57;;;3.50;;
51877;SDS011;37911;51.526;11.536;2024-01-16T09:22:25;4.10;;;3.53;;
51877;SDS011;37911;51.526;11.536;2024-01-16T09:25:29;6.43;;;3.53;;
51877;SDS011;37911;51.526;11.536;2024-01-16T09:28:32;5.28;;;3.38;;
51877;SDS011;37911;51.526;11.536;2024-01-16T09:31:35;5.35;;;3.72;;
51877;SDS011;37911;51.526;11.536;2024-01-16T09:34:41;5.82;;;3.17;;
51877;SDS011;37911;51.526;11.536;2024-01-16T09:37:45;5.80;;;3.50;;
51877;SDS011;37911;51.526;11.536;2024-01-16T09:40:48;9.63;;;3.47;;
51877;SDS011;37911;51.526;11.536;2024-01-16T09:43:52;3.88;;;3.58;;
51877;SDS011;37911;51.526;11.536;2024-01-16T09:46:56;4.20;;;2.80;;
51877;SDS011;37911;51.526;11.536;2024-01-16T09:50:04;5.63;;;3.40;;
51877;SDS011;37911;51.526;11.536;2024-01-16T09:53:08;7.40;;;3.35;;
51877;SDS011;37911;51.526;11.536;2024-01-16T09:56:12;5.50;;;2.75;;
51877;SDS011;37911;51.526;11.536;2024-01-16T09:59:17;4.75;;;3.58;;
51877;SDS011;37911;51.526;11.536;2024-01-16T10:02:23;8.00;;;3.42;;
51877;SDS011;37911;51.526;11.536;2024-01-16T10:05:29;5.65;;;3.33;;
51877;SDS011;37911;51.526;11.536;2024-01-16T10:08:33;4.63;;;3.10;;
51877;SDS011;37911;51.526;11.536;2024-01-16T10:11:37;7.30;;;2.97;;
51877;SDS011;37911;51.526;11.536;2024-01-16T10:14:40;4.68;;;2.38;;
51877;SDS011;37911;51.526;11.536;2024-01-16T10:17:47;3.28;;;2.97;;
51877;SDS011;37911;51.526;11.536;2024-01-16T10:20:53;3.53;;;2.08;;
51877;SDS011;37911;51.526;11.536;2024-01-16T10:23:56;3.30;;;2.85;;
51877;SDS011;37911;51.526;11.536;2024-01-16T10:27:15;4.25;;;2.78;;
51877;SDS011;37911;51.526;11.536;2024-01-16T10:30:21;6.65;;;4.07;;
51877;SDS011;37911;51.526;11.536;2024-01-16T10:33:25;6.90;;;2.45;;
51877;SDS011;37911;51.526;11.536;2024-01-16T10:36:32;8.65;;;3.65;;
51877;SDS011;37911;51.526;11.536;2024-01-16T10:39:35;6.22;;;2.53;;
51877;SDS011;37911;51.526;11.536;2024-01-16T10:42:39;5.15;;;3.05;;
51877;SDS011;37911;51.526;11.536;2024-01-16T10:45:42;6.45;;;2.45;;
51877;SDS011;37911;51.526;11.536;2024-01-16T10:48:59;5.20;;;2.90;;
51877;SDS011;37911;51.526;11.536;2024-01-16T10:52:06;6.00;;;2.30;;
51877;SDS011;37911;51.526;11.536;2024-01-16T10:55:14;4.55;;;3.08;;
51877;SDS011;37911;51.526;11.536;2024-01-16T11:01:26;1.83;;;1.20;;
51877;SDS011;37911;51.526;11.536;2024-01-16T11:04:31;3.15;;;2.92;;
51877;SDS011;37911;51.526;11.536;2024-01-16T11:07:37;2.13;;;1.67;;
51877;SDS011;37911;51.526;11.536;2024-01-16T11:10:43;4.55;;;3.08;;
51877;SDS011;37911;51.526;11.536;2024-01-16T11:13:47;4.43;;;2.72;;
51877;SDS011;37911;51.526;11.536;2024-01-16T11:16:51;6.50;;;3.33;;
51877;SDS011;37911;51.526;11.536;2024-01-16T11:19:58;6.60;;;3.15;;
51877;SDS011;37911;51.526;11.536;2024-01-16T11:23:04;4.63;;;3.97;;
51877;SDS011;37911;51.526;11.536;2024-01-16T11:26:24;4.78;;;2.67;;
51877;SDS011;37911;51.526;11.536;2024-01-16T11:29:35;4.60;;;2.97;;
51877;SDS011;37911;51.526;11.536;2024-01-16T11:32:39;3.60;;;3.08;;
51877;SDS011;37911;51.526;11.536;2024-01-16T11:35:44;4.50;;;3.20;;
51877;SDS011;37911;51.526;11.536;2024-01-16T11:38:50;3.92;;;2.63;;
51877;SDS011;37911;51.526;11.536;2024-01-16T11:41:59;2.80;;;2.38;;
51877;SDS011;37911;51.526;11.536;2024-01-16T11:45:04;3.90;;;2.15;;
51877;SDS011;37911;51.526;11.536;2024-01-16T11:48:09;3.90;;;1.92;;
51877;SDS011;37911;51.526;11.536;2024-01-16T11:51:22;5.55;;;3.45;;
51877;SDS011;37911;51.526;11.536;2024-01-16T11:54:29;4.57;;;3.13;;
51877;SDS011;37911;51.526;11.536;2024-01-16T11:57:36;4.93;;;3.22;;
51877;SDS011;37911;51.526;11.536;2024-01-16T12:00:51;4.93;;;3.00;;
51877;SDS011;37911;51.526;11.536;2024-01-16T12:04:04;2.85;;;1.90;;
51877;SDS011;37911;51.526;11.536;2024-01-16T12:07:07;4.97;;;2.78;;
51877;SDS011;37911;51.526;11.536;2024-01-16T12:10:13;5.07;;;3.58;;
51877;SDS011;37911;51.526;11.536;2024-01-16T12:13:17;4.40;;;3.33;;
51877;SDS011;37911;51.526;11.536;2024-01-16T12:16:21;4.57;;;4.18;;
51877;SDS011;37911;51.526;11.536;2024-01-16T12:19:24;4.13;;;3.03;;
51877;SDS011;37911;51.526;11.536;2024-01-16T12:22:30;8.13;;;4.60;;
51877;SDS011;37911;51.526;11.536;2024-01-16T12:25:36;6.93;;;4.20;;
51877;SDS011;37911;51.526;11.536;2024-01-16T12:28:40;4.93;;;2.78;;
51877;SDS011;37911;51.526;11.536;2024-01-16T12:31:44;4.90;;;4.00;;
51877;SDS011;37911;51.526;11.536;2024-01-16T12:34:47;8.73;;;3.65;;
51877;SDS011;37911;51.526;11.536;2024-01-16T12:37:57;5.03;;;3.67;;
51877;SDS011;37911;51.526;11.536;2024-01-16T12:41:04;6.97;;;3.45;;
51877;SDS011;37911;51.526;11.536;2024-01-16T12:44:10;6.35;;;3.05;;
51877;SDS011;37911;51.526;11.536;2024-01-16T12:47:14;6.78;;;4.47;;
51877;SDS011;37911;51.526;11.536;2024-01-16T12:50:20;6.60;;;3.95;;
51877;SDS011;37911;51.526;11.536;2024-01-16T12:53:24;7.22;;;4.30;;
51877;SDS011;37911;51.526;11.536;2024-01-16T12:56:30;7.38;;;3.78;;
51877;SDS011;37911;51.526;11.536;2024-01-16T12:59:33;7.15;;;4.35;;
51877;SDS011;37911;51.526;11.536;2024-01-16T13:02:36;4.53;;;4.00;;
51877;SDS011;37911;51.526;11.536;2024-01-16T13:05:40;7.00;;;4.15;;
51877;SDS011;37911;51.526;11.536;2024-01-16T13:08:43;4.60;;;3.28;;
51877;SDS011;37911;51.526;11.536;2024-01-16T13:11:50;5.50;;;3.72;;
51877;SDS011;37911;51.526;11.536;2024-01-16T13:14:55;6.28;;;3.65;;
51877;SDS011;37911;51.526;11.536;2024-01-16T13:17:58;5.60;;;3.33;;
51877;SDS011;37911;51.526;11.536;2024-01-16T13:21:02;5.70;;;4.80;;
51877;SDS011;37911;51.526;11.536;2024-01-16T13:24:07;6.13;;;3.42;;
51877;SDS011;37911;51.526;11.536;2024-01-16T13:27:12;6.75;;;3.65;;
51877;SDS011;37911;51.526;11.536;2024-01-16T13:30:16;6.10;;;4.30;;
51877;SDS011;37911;51.526;11.536;2024-01-16T13:33:22;4.38;;;2.88;;
51877;SDS011;37911;51.526;11.536;2024-01-16T13:36:27;8.90;;;3.10;;
51877;SDS011;37911;51.526;11.536;2024-01-16T13:39:31;5.43;;;4.93;;
51877;SDS011;37911;51.526;11.536;2024-01-16T13:42:41;5.20;;;4.20;;
51877;SDS011;37911;51.526;11.536;2024-01-16T13:45:44;5.60;;;3.20;;
51877;SDS011;37911;51.526;11.536;2024-01-16T13:48:49;6.10;;;3.10;;
51877;SDS011;37911;51.526;11.536;2024-01-16T13:51:53;4.40;;;3.17;;
51877;SDS011;37911;51.526;11.536;2024-01-16T13:54:56;6.28;;;3.83;;
51877;SDS011;37911;51.526;11.536;2024-01-16T13:58:05;5.80;;;4.80;;
51877;SDS011;37911;51.526;11.536;2024-01-16T14:01:08;5.65;;;4.22;;
51877;SDS011;37911;51.526;11.536;2024-01-16T14:04:11;9.45;;;3.40;;
51877;SDS011;37911;51.526;11.536;2024-01-16T14:07:15;6.63;;;4.07;;
51877;SDS011;37911;51.526;11.536;2024-01-16T14:10:19;5.97;;;3.65;;
51877;SDS011;37911;51.526;11.536;2024-01-16T14:13:28;8.93;;;6.60;;
51877;SDS011;37911;51.526;11.536;2024-01-16T14:16:31;9.32;;;5.68;;
51877;SDS011;37911;51.526;11.536;2024-01-16T14:19:34;12.30;;;8.40;;
51877;SDS011;37911;51.526;11.536;2024-01-16T14:22:38;7.72;;;5.60;;
51877;SDS011;37911;51.526;11.536;2024-01-16T14:25:43;6.85;;;3.58;;
51877;SDS011;37911;51.526;11.536;2024-01-16T14:28:49;3.25;;;2.45;;
51877;SDS011;37911;51.526;11.536;2024-01-16T14:31:53;2.97;;;2.25;;
51877;SDS011;37911;51.526;11.536;2024-01-16T14:34:56;7.18;;;3.40;;
51877;SDS011;37911;51.526;11.536;2024-01-16T14:37:59;5.78;;;3.25;;
51877;SDS011;37911;51.526;11.536;2024-01-16T14:41:03;5.85;;;3.35;;
51877;SDS011;37911;51.526;11.536;2024-01-16T14:44:12;3.70;;;3.40;;
51877;SDS011;37911;51.526;11.536;2024-01-16T14:47:15;4.15;;;3.03;;
51877;SDS011;37911;51.526;11.536;2024-01-16T14:50:18;3.92;;;2.72;;
51877;SDS011;37911;51.526;11.536;2024-01-16T14:53:22;4.40;;;2.65;;
51877;SDS011;37911;51.526;11.536;2024-01-16T14:56:25;5.07;;;2.58;;
51877;SDS011;37911;51.526;11.536;2024-01-16T14:59:32;3.10;;;2.47;;
51877;SDS011;37911;51.526;11.536;2024-01-16T15:02:36;4.88;;;3.35;;
51877;SDS011;37911;51.526;11.536;2024-01-16T15:05:39;22.55;;;9.13;;
51877;SDS011;37911;51.526;11.536;2024-01-16T15:08:42;12.75;;;7.13;;
51877;SDS011;37911;51.526;11.536;2024-01-16T15:11:49;18.10;;;9.85;;
51877;SDS011;37911;51.526;11.536;2024-01-16T15:14:55;5.55;;;3.80;;
51877;SDS011;37911;51.526;11.536;2024-01-16T15:17:59;6.10;;;5.60;;
51877;SDS011;37911;51.526;11.536;2024-01-16T15:21:04;3.33;;;2.70;;
51877;SDS011;37911;51.526;11.536;2024-01-16T15:24:07;6.53;;;2.67;;
51877;SDS011;37911;51.526;11.536;2024-01-16T15:27:16;5.40;;;4.63;;
51877;SDS011;37911;51.526;11.536;2024-01-16T15:30:22;4.75;;;3.95;;
51877;SDS011;37911;51.526;11.536;2024-01-16T15:33:31;4.43;;;3.70;;
51877;SDS011;37911;51.526;11.536;2024-01-16T15:36:35;5.47;;;3.70;;
51877;SDS011;37911;51.526;11.536;2024-01-16T15:39:39;4.68;;;3.17;;
51877;SDS011;37911;51.526;11.536;2024-01-16T15:42:42;4.45;;;2.83;;
51877;SDS011;37911;51.526;11.536;2024-01-16T15:45:48;3.45;;;2.88;;
51877;SDS011;37911;51.526;11.536;2024-01-16T15:48:51;10.02;;;5.22;;
51877;SDS011;37911;51.526;11.536;2024-01-16T15:51:56;17.80;;;12.27;;
51877;SDS011;37911;51.526;11.536;2024-01-16T15:55:01;22.35;;;13.50;;
51877;SDS011;37911;51.526;11.536;2024-01-16T15:58:04;6.00;;;4.65;;
51877;SDS011;37911;51.526;11.536;2024-01-16T16:01:10;5.70;;;3.83;;
51877;SDS011;37911;51.526;11.536;2024-01-16T16:04:14;6.30;;;3.70;;
51877;SDS011;37911;51.526;11.536;2024-01-16T16:07:17;4.43;;;3.97;;
51877;SDS011;37911;51.526;11.536;2024-01-16T16:10:21;5.38;;;3.85;;
51877;SDS011;37911;51.526;11.536;2024-01-16T16:13:25;6.50;;;3.72;;
51877;SDS011;37911;51.526;11.536;2024-01-16T16:16:34;6.80;;;4.13;;
51877;SDS011;37911;51.526;11.536;2024-01-16T16:19:37;7.40;;;5.10;;
51877;SDS011;37911;51.526;11.536;2024-01-16T16:22:40;5.40;;;4.90;;
51877;SDS011;37911;51.526;11.536;2024-01-16T16:25:44;5.82;;;4.40;;
51877;SDS011;37911;51.526;11.536;2024-01-16T16:28:49;9.18;;;5.03;;
51877;SDS011;37911;51.526;11.536;2024-01-16T16:31:57;6.00;;;5.35;;
51877;SDS011;37911;51.526;11.536;2024-01-16T16:35:00;7.40;;;5.38;;
51877;SDS011;37911;51.526;11.536;2024-01-16T16:38:05;8.38;;;5.90;;
51877;SDS011;37911;51.526;11.536;2024-01-16T16:41:10;5.97;;;5.15;;
51877;SDS011;37911;51.526;11.536;2024-01-16T16:44:14;8.50;;;4.72;;
51877;SDS011;37911;51.526;11.536;2024-01-16T16:47:21;6.03;;;5.30;;
51877;SDS011;37911;51.526;11.536;2024-01-16T16:50:25;6.93;;;4.57;;
51877;SDS011;37911;51.526;11.536;2024-01-16T16:53:31;8.68;;;5.85;;
51877;SDS011;37911;51.526;11.536;2024-01-16T16:56:34;5.53;;;4.22;;
51877;SDS011;37911;51.526;11.536;2024-01-16T16:59:40;8.07;;;5.18;;
51877;SDS011;37911;51.526;11.536;2024-01-16T17:02:48;6.63;;;5.10;;
51877;SDS011;37911;51.526;11.536;2024-01-16T17:05:51;11.88;;;5.97;;
51877;SDS011;37911;51.526;11.536;2024-01-16T17:08:55;9.13;;;5.47;;
51877;SDS011;37911;51.526;11.536;2024-01-16T17:11:58;15.25;;;8.23;;
51877;SDS011;37911;51.526;11.536;2024-01-16T17:15:02;8.77;;;6.25;;
51877;SDS011;37911;51.526;11.536;2024-01-16T17:18:09;8.98;;;5.55;;
51877;SDS011;37911;51.526;11.536;2024-01-16T17:21:12;6.70;;;4.28;;
51877;SDS011;37911;51.526;11.536;2024-01-16T17:24:16;9.00;;;5.57;;
51877;SDS011;37911;51.526;11.536;2024-01-16T17:27:20;7.70;;;5.28;;
51877;SDS011;37911;51.526;11.536;2024-01-16T17:30:27;6.72;;;5.10;;
51877;SDS011;37911;51.526;11.536;2024-01-16T17:33:33;7.75;;;4.95;;
51877;SDS011;37911;51.526;11.536;2024-01-16T17:36:37;6.53;;;5.47;;
51877;SDS011;37911;51.526;11.536;2024-01-16T17:39:41;7.95;;;5.93;;
51877;SDS011;37911;51.526;11.536;2024-01-16T17:42:46;26.20;;;20.88;;
51877;SDS011;37911;51.526;11.536;2024-01-16T17:45:50;15.40;;;13.15;;
51877;SDS011;37911;51.526;11.536;2024-01-16T17:48:56;10.18;;;7.07;;
51877;SDS011;37911;51.526;11.536;2024-01-16T17:51:59;6.95;;;4.75;;
51877;SDS011;37911;51.526;11.536;2024-01-16T17:55:04;10.02;;;5.88;;
51877;SDS011;37911;51.526;11.536;2024-01-16T17:58:09;9.52;;;5.68;;
51877;SDS011;37911;51.526;11.536;2024-01-16T18:01:15;11.15;;;6.05;;
51877;SDS011;37911;51.526;11.536;2024-01-16T18:04:21;6.93;;;5.82;;
51877;SDS011;37911;51.526;11.536;2024-01-16T18:07:24;6.07;;;3.88;;
51877;SDS011;37911;51.526;11.536;2024-01-16T18:10:28;7.82;;;5.32;;
51877;SDS011;37911;51.526;11.536;2024-01-16T18:13:31;7.72;;;4.22;;
51877;SDS011;37911;51.526;11.536;2024-01-16T18:16:37;8.35;;;5.20;;